sensor_id;sensor_type;location;lat;lon;timestamp;pressure;altitude;pressure_sealevel;temperature;humidity
10261;BME280;5175;42.606;23.388;2023-01-31T00:00:21;93215.38;;;-0.42;100.00
10261;BME280;5175;42.606;23.388;2023-01-31T00:02:48;93216.91;;;-0.64;100.00
10261;BME280;5175;42.606;23.388;2023-01-31T00:05:15;93226.94;;;-0.61;100.00
10261;BME280;5175;42.606;23.388;2023-01-31T00:07:41;93232.13;;;-0.43;100.00
10261;BME280;5175;42.606;23.388;2023-01-31T00:10:09;93242.97;;;-0.39;100.00
10261;BME280;5175;42.606;23.388;2023-01-31T00:12:37;93244.66;;;-0.33;100.00
10261;BME280;5175;42.606;23.388;2023-01-31T00:15:05;93238.75;;;-0.29;100.00
10261;BME280;5175;42.606;23.388;2023-01-31T00:17:31;93248.00;;;-0.26;100.00
10261;BME280;5175;42.606;23.388;2023-01-31T00:19:58;93241.38;;;-0.29;100.00
10261;BME280;5175;42.606;23.388;2023-01-31T00:22:25;93242.97;;;-0.28;100.00
10261;BME280;5175;42.606;23.388;2023-01-31T00:24:51;93243.09;;;-0.23;100.00
10261;BME280;5175;42.606;23.388;2023-01-31T00:27:18;93238.75;;;-0.17;100.00
10261;BME280;5175;42.606;23.388;2023-01-31T00:29:46;93238.75;;;-0.17;100.00
10261;BME280;5175;42.606;23.388;2023-01-31T00:32:13;93227.94;;;-0.21;100.00
10261;BME280;5175;42.606;23.388;2023-01-31T00:34:39;93237.72;;;-0.28;100.00
10261;BME280;5175;42.606;23.388;2023-01-31T00:37:06;93235.78;;;-0.44;100.00
10261;BME280;5175;42.606;23.388;2023-01-31T00:39:33;93225.94;;;-0.48;100.00
10261;BME280;5175;42.606;23.388;2023-01-31T00:41:59;93245.47;;;-0.33;100.00
10261;BME280;5175;42.606;23.388;2023-01-31T00:44:26;93255.38;;;-0.35;100.00
10261;BME280;5175;42.606;23.388;2023-01-31T00:46:54;93251.28;;;-0.31;100.00
10261;BME280;5175;42.606;23.388;2023-01-31T00:49:21;93252.78;;;-0.12;100.00
10261;BME280;5175;42.606;23.388;2023-01-31T00:51:47;93240.78;;;-0.42;100.00
10261;BME280;5175;42.606;23.388;2023-01-31T00:54:14;93246.72;;;-0.35;100.00
10261;BME280;5175;42.606;23.388;2023-01-31T00:56:41;93240.47;;;-0.34;100.00
10261;BME280;5175;42.606;23.388;2023-01-31T00:59:09;93229.34;;;-0.59;100.00
10261;BME280;5175;42.606;23.388;2023-01-31T01:01:37;93226.50;;;-0.70;100.00
10261;BME280;5175;42.606;23.388;2023-01-31T01:04:05;93228.56;;;-0.60;100.00
10261;BME280;5175;42.606;23.388;2023-01-31T01:06:33;93231.84;;;-0.65;100.00
10261;BME280;5175;42.606;23.388;2023-01-31T01:09:00;93219.09;;;-0.61;100.00
10261;BME280;5175;42.606;23.388;2023-01-31T01:11:28;93211.78;;;-0.71;100.00
10261;BME280;5175;42.606;23.388;2023-01-31T01:13:56;93218.88;;;-0.48;100.00
10261;BME280;5175;42.606;23.388;2023-01-31T01:16:25;93236.53;;;-0.55;100.00
10261;BME280;5175;42.606;23.388;2023-01-31T01:18:52;93221.69;;;-0.61;100.00
10261;BME280;5175;42.606;23.388;2023-01-31T01:21:23;93243.97;;;-0.40;100.00
10261;BME280;5175;42.606;23.388;2023-01-31T01:23:51;93243.66;;;-0.32;100.00
10261;BME280;5175;42.606;23.388;2023-01-31T01:26:19;93245.91;;;-0.36;100.00
10261;BME280;5175;42.606;23.388;2023-01-31T01:28:47;93183.66;;;-0.75;100.00
10261;BME280;5175;42.606;23.388;2023-01-31T01:31:15;93231.41;;;-0.50;100.00
10261;BME280;5175;42.606;23.388;2023-01-31T01:33:43;93236.09;;;-0.52;100.00
10261;BME280;5175;42.606;23.388;2023-01-31T01:36:12;93229.16;;;-0.46;100.00
10261;BME280;5175;42.606;23.388;2023-01-31T01:38:44;93218.34;;;-0.38;100.00
10261;BME280;5175;42.606;23.388;2023-01-31T01:41:11;93220.25;;;-0.45;100.00
10261;BME280;5175;42.606;23.388;2023-01-31T01:43:40;93029.84;;;-1.56;100.00
10261;BME280;5175;42.606;23.388;2023-01-31T01:46:08;93212.31;;;-0.27;100.00
10261;BME280;5175;42.606;23.388;2023-01-31T01:48:36;93214.00;;;-0.33;100.00
10261;BME280;5175;42.606;23.388;2023-01-31T01:51:05;93224.41;;;-0.26;100.00
10261;BME280;5175;42.606;23.388;2023-01-31T01:53:34;93213.22;;;-0.10;100.00
10261;BME280;5175;42.606;23.388;2023-01-31T01:56:06;93219.28;;;-0.10;100.00
10261;BME280;5175;42.606;23.388;2023-01-31T01:58:37;93228.53;;;0.05;100.00
10261;BME280;5175;42.606;23.388;2023-01-31T02:01:06;93229.78;;;0.14;74.14
10261;BME280;5175;42.606;23.388;2023-01-31T02:03:34;93234.56;;;0.17;71.61
10261;BME280;5175;42.606;23.388;2023-01-31T02:06:03;93233.88;;;0.33;69.67
10261;BME280;5175;42.606;23.388;2023-01-31T02:08:34;93240.16;;;0.43;68.80
10261;BME280;5175;42.606;23.388;2023-01-31T02:11:07;93229.16;;;0.58;64.62
10261;BME280;5175;42.606;23.388;2023-01-31T02:13:35;93229.63;;;0.55;63.89
10261;BME280;5175;42.606;23.388;2023-01-31T02:16:03;93232.25;;;0.55;62.26
10261;BME280;5175;42.606;23.388;2023-01-31T02:18:30;93260.63;;;0.81;57.96
10261;BME280;5175;42.606;23.388;2023-01-31T02:21:38;93243.63;;;0.84;60.89
10261;BME280;5175;42.606;23.388;2023-01-31T02:27:33;93253.22;;;0.78;61.00
10261;BME280;5175;42.606;23.388;2023-01-31T02:30:30;93243.41;;;0.74;60.14
10261;BME280;5175;42.606;23.388;2023-01-31T02:33:10;93237.38;;;0.61;60.67
10261;BME280;5175;42.606;23.388;2023-01-31T02:35:48;93242.28;;;0.58;60.93
10261;BME280;5175;42.606;23.388;2023-01-31T02:38:27;93237.16;;;0.51;59.86
10261;BME280;5175;42.606;23.388;2023-01-31T02:41:04;93247.28;;;0.71;58.33
10261;BME280;5175;42.606;23.388;2023-01-31T02:43:42;93241.59;;;0.74;58.76
10261;BME280;5175;42.606;23.388;2023-01-31T02:46:33;93236.78;;;0.71;58.46
10261;BME280;5175;42.606;23.388;2023-01-31T02:49:07;93242.16;;;0.76;58.68
10261;BME280;5175;42.606;23.388;2023-01-31T02:51:42;93246.13;;;0.79;59.75
10261;BME280;5175;42.606;23.388;2023-01-31T02:54:32;93241.25;;;0.71;60.58
10261;BME280;5175;42.606;23.388;2023-01-31T02:57:13;93244.66;;;0.71;61.90
10261;BME280;5175;42.606;23.388;2023-01-31T02:59:41;93247.84;;;0.73;62.16
10261;BME280;5175;42.606;23.388;2023-01-31T03:02:08;93254.34;;;0.82;63.23
10261;BME280;5175;42.606;23.388;2023-01-31T03:04:37;93255.38;;;0.70;64.17
10261;BME280;5175;42.606;23.388;2023-01-31T03:07:07;93259.13;;;0.85;64.60
10261;BME280;5175;42.606;23.388;2023-01-31T03:09:47;93262.22;;;0.82;66.00
10261;BME280;5175;42.606;23.388;2023-01-31T03:12:31;93272.03;;;0.87;66.76
10261;BME280;5175;42.606;23.388;2023-01-31T03:18:16;93285.97;;;0.87;69.24
10261;BME280;5175;42.606;23.388;2023-01-31T03:20:48;93284.00;;;0.83;71.51
10261;BME280;5175;42.606;23.388;2023-01-31T03:23:19;93286.06;;;0.81;74.08
10261;BME280;5175;42.606;23.388;2023-01-31T03:25:48;93280.63;;;0.82;74.40
10261;BME280;5175;42.606;23.388;2023-01-31T03:28:17;93283.78;;;0.84;76.23
10261;BME280;5175;42.606;23.388;2023-01-31T03:30:49;93288.50;;;0.82;79.24
10261;BME280;5175;42.606;23.388;2023-01-31T03:33:22;93286.88;;;0.81;82.37
10261;BME280;5175;42.606;23.388;2023-01-31T03:35:56;93282.78;;;0.74;84.07
10261;BME280;5175;42.606;23.388;2023-01-31T03:38:26;93281.41;;;0.71;85.98
10261;BME280;5175;42.606;23.388;2023-01-31T03:41:00;93296.25;;;0.66;87.88
10261;BME280;5175;42.606;23.388;2023-01-31T03:43:34;93294.31;;;0.61;88.94
10261;BME280;5175;42.606;23.388;2023-01-31T03:46:06;93312.13;;;0.71;89.45
10261;BME280;5175;42.606;23.388;2023-01-31T03:48:41;93299.25;;;0.46;90.12
10261;BME280;5175;42.606;23.388;2023-01-31T03:51:15;93313.59;;;0.55;92.18
10261;BME280;5175;42.606;23.388;2023-01-31T03:53:47;93309.63;;;0.52;92.66
10261;BME280;5175;42.606;23.388;2023-01-31T03:56:17;93319.88;;;0.42;94.00
10261;BME280;5175;42.606;23.388;2023-01-31T03:58:48;93322.16;;;0.50;95.11
10261;BME280;5175;42.606;23.388;2023-01-31T04:01:17;93314.97;;;0.57;95.62
10261;BME280;5175;42.606;23.388;2023-01-31T04:03:47;93313.84;;;0.53;96.24
10261;BME280;5175;42.606;23.388;2023-01-31T04:06:18;93310.97;;;0.55;96.32
10261;BME280;5175;42.606;23.388;2023-01-31T04:08:45;93326.13;;;0.41;97.20
10261;BME280;5175;42.606;23.388;2023-01-31T04:11:13;93324.56;;;0.40;97.30
10261;BME280;5175;42.606;23.388;2023-01-31T04:13:41;93324.13;;;0.43;97.11
10261;BME280;5175;42.606;23.388;2023-01-31T04:16:08;93336.88;;;0.40;97.19
10261;BME280;5175;42.606;23.388;2023-01-31T04:18:34;93330.13;;;0.44;97.72
10261;BME280;5175;42.606;23.388;2023-01-31T04:21:01;93312.94;;;0.48;97.20
10261;BME280;5175;42.606;23.388;2023-01-31T04:23:29;93342.13;;;0.40;97.00
10261;BME280;5175;42.606;23.388;2023-01-31T04:25:56;93361.06;;;0.42;97.77
10261;BME280;5175;42.606;23.388;2023-01-31T04:28:23;93337.22;;;0.32;98.85
10261;BME280;5175;42.606;23.388;2023-01-31T04:30:51;93341.19;;;0.23;100.00
10261;BME280;5175;42.606;23.388;2023-01-31T04:33:18;93351.09;;;0.21;100.00
10261;BME280;5175;42.606;23.388;2023-01-31T04:35:45;93333.09;;;0.13;100.00
10261;BME280;5175;42.606;23.388;2023-01-31T04:38:12;93336.00;;;-0.07;100.00
10261;BME280;5175;42.606;23.388;2023-01-31T04:40:41;93340.91;;;-0.11;100.00
10261;BME280;5175;42.606;23.388;2023-01-31T04:43:07;93340.00;;;-0.05;100.00
10261;BME280;5175;42.606;23.388;2023-01-31T04:45:34;93330.66;;;-0.01;100.00
10261;BME280;5175;42.606;23.388;2023-01-31T04:48:01;93343.75;;;-0.12;100.00
10261;BME280;5175;42.606;23.388;2023-01-31T04:50:28;93340.19;;;-0.18;100.00
10261;BME280;5175;42.606;23.388;2023-01-31T04:52:55;93356.16;;;-0.08;100.00
10261;BME280;5175;42.606;23.388;2023-01-31T04:55:22;93361.06;;;-0.11;100.00
10261;BME280;5175;42.606;23.388;2023-01-31T04:57:50;93349.09;;;-0.19;100.00
10261;BME280;5175;42.606;23.388;2023-01-31T05:00:18;93362.63;;;-0.22;100.00
10261;BME280;5175;42.606;23.388;2023-01-31T05:02:45;93371.78;;;-0.13;100.00
10261;BME280;5175;42.606;23.388;2023-01-31T05:05:11;93359.69;;;-0.14;100.00
10261;BME280;5175;42.606;23.388;2023-01-31T05:07:38;93338.78;;;-0.32;100.00
10261;BME280;5175;42.606;23.388;2023-01-31T05:10:06;93360.53;;;-0.02;100.00
10261;BME280;5175;42.606;23.388;2023-01-31T05:12:32;93355.16;;;-0.07;100.00
10261;BME280;5175;42.606;23.388;2023-01-31T05:15:00;93360.16;;;-0.05;100.00
10261;BME280;5175;42.606;23.388;2023-01-31T05:17:28;93359.50;;;-0.01;100.00
10261;BME280;5175;42.606;23.388;2023-01-31T05:19:55;93356.66;;;0.01;100.00
10261;BME280;5175;42.606;23.388;2023-01-31T05:22:21;93367.63;;;0.10;100.00
10261;BME280;5175;42.606;23.388;2023-01-31T05:24:48;93348.44;;;-0.03;98.76
10261;BME280;5175;42.606;23.388;2023-01-31T05:27:16;93372.88;;;0.10;100.00
10261;BME280;5175;42.606;23.388;2023-01-31T05:29:43;93364.91;;;0.16;98.98
10261;BME280;5175;42.606;23.388;2023-01-31T05:32:13;93369.34;;;0.16;100.00
10261;BME280;5175;42.606;23.388;2023-01-31T05:34:40;93364.09;;;0.16;100.00
10261;BME280;5175;42.606;23.388;2023-01-31T05:37:07;93358.97;;;0.21;100.00
10261;BME280;5175;42.606;23.388;2023-01-31T05:39:34;93375.19;;;0.18;100.00
10261;BME280;5175;42.606;23.388;2023-01-31T05:42:01;93360.88;;;0.02;100.00
10261;BME280;5175;42.606;23.388;2023-01-31T05:44:28;93388.06;;;0.19;100.00
10261;BME280;5175;42.606;23.388;2023-01-31T05:46:56;93386.69;;;0.17;100.00
10261;BME280;5175;42.606;23.388;2023-01-31T05:49:26;93400.50;;;0.24;99.52
10261;BME280;5175;42.606;23.388;2023-01-31T05:51:56;93391.59;;;0.25;100.00
10261;BME280;5175;42.606;23.388;2023-01-31T05:54:23;93396.16;;;0.18;100.00
10261;BME280;5175;42.606;23.388;2023-01-31T05:56:49;93402.91;;;0.37;100.00
10261;BME280;5175;42.606;23.388;2023-01-31T05:59:16;93396.66;;;0.38;100.00
10261;BME280;5175;42.606;23.388;2023-01-31T06:01:43;93402.47;;;0.40;99.32
10261;BME280;5175;42.606;23.388;2023-01-31T06:04:09;93397.78;;;0.42;98.15
10261;BME280;5175;42.606;23.388;2023-01-31T06:06:38;93401.78;;;0.44;98.26
10261;BME280;5175;42.606;23.388;2023-01-31T06:09:04;93389.91;;;0.30;99.21
10261;BME280;5175;42.606;23.388;2023-01-31T06:11:31;93394.84;;;0.38;100.00
10261;BME280;5175;42.606;23.388;2023-01-31T06:13:57;93402.91;;;0.37;100.00
10261;BME280;5175;42.606;23.388;2023-01-31T06:16:24;93390.84;;;0.36;100.00
10261;BME280;5175;42.606;23.388;2023-01-31T06:18:51;93405.66;;;0.42;100.00
10261;BME280;5175;42.606;23.388;2023-01-31T06:21:19;93402.03;;;0.43;100.00
10261;BME280;5175;42.606;23.388;2023-01-31T06:23:48;93402.03;;;0.43;100.00
10261;BME280;5175;42.606;23.388;2023-01-31T06:26:14;93410.09;;;0.41;100.00
10261;BME280;5175;42.606;23.388;2023-01-31T06:28:41;93406.69;;;0.41;100.00
10261;BME280;5175;42.606;23.388;2023-01-31T06:31:08;93414.91;;;0.44;100.00
10261;BME280;5175;42.606;23.388;2023-01-31T06:33:35;93409.44;;;0.57;100.00
10261;BME280;5175;42.606;23.388;2023-01-31T06:36:02;93418.22;;;0.51;100.00
10261;BME280;5175;42.606;23.388;2023-01-31T06:38:29;93415.25;;;0.48;100.00
10261;BME280;5175;42.606;23.388;2023-01-31T06:40:57;93418.00;;;0.64;100.00
10261;BME280;5175;42.606;23.388;2023-01-31T06:43:25;93412.09;;;0.69;100.00
10261;BME280;5175;42.606;23.388;2023-01-31T06:45:51;93416.31;;;0.70;100.00
10261;BME280;5175;42.606;23.388;2023-01-31T06:48:18;93419.84;;;0.64;100.00
10261;BME280;5175;42.606;23.388;2023-01-31T06:50:45;93421.44;;;0.65;100.00
10261;BME280;5175;42.606;23.388;2023-01-31T06:53:12;93435.25;;;0.72;100.00
10261;BME280;5175;42.606;23.388;2023-01-31T06:55:38;93425.56;;;0.61;100.00
10261;BME280;5175;42.606;23.388;2023-01-31T06:58:06;93431.69;;;0.55;100.00
10261;BME280;5175;42.606;23.388;2023-01-31T07:00:33;93434.44;;;0.60;100.00
10261;BME280;5175;42.606;23.388;2023-01-31T07:03:00;93439.00;;;0.64;100.00
10261;BME280;5175;42.606;23.388;2023-01-31T07:05:26;93436.97;;;0.78;100.00
10261;BME280;5175;42.606;23.388;2023-01-31T07:07:53;93427.84;;;0.69;100.00
10261;BME280;5175;42.606;23.388;2023-01-31T07:10:21;93431.94;;;0.65;100.00
10261;BME280;5175;42.606;23.388;2023-01-31T07:12:48;93435.25;;;0.72;100.00
10261;BME280;5175;42.606;23.388;2023-01-31T07:15:16;93436.63;;;0.75;98.76
10261;BME280;5175;42.606;23.388;2023-01-31T07:17:42;93436.63;;;0.75;100.00
10261;BME280;5175;42.606;23.388;2023-01-31T07:20:10;93439.50;;;0.85;99.82
10261;BME280;5175;42.606;23.388;2023-01-31T07:22:39;93442.56;;;0.93;97.81
10261;BME280;5175;42.606;23.388;2023-01-31T07:25:07;93444.75;;;0.96;98.03
10261;BME280;5175;42.606;23.388;2023-01-31T07:27:34;93445.56;;;0.97;97.66
10261;BME280;5175;42.606;23.388;2023-01-31T07:30:00;93450.94;;;1.02;97.59
10261;BME280;5175;42.606;23.388;2023-01-31T07:32:29;93439.75;;;0.95;97.44
10261;BME280;5175;42.606;23.388;2023-01-31T07:34:56;93437.91;;;0.95;98.97
10261;BME280;5175;42.606;23.388;2023-01-31T07:37:22;93447.94;;;0.98;99.15
10261;BME280;5175;42.606;23.388;2023-01-31T07:39:49;93446.47;;;1.02;99.88
10261;BME280;5175;42.606;23.388;2023-01-31T07:42:16;93445.56;;;0.97;100.00
10261;BME280;5175;42.606;23.388;2023-01-31T07:44:43;93447.94;;;1.21;99.18
10261;BME280;5175;42.606;23.388;2023-01-31T07:47:09;93444.31;;;1.22;99.46
10261;BME280;5175;42.606;23.388;2023-01-31T07:49:37;93440.09;;;1.10;99.99
10261;BME280;5175;42.606;23.388;2023-01-31T07:52:04;93449.91;;;1.14;100.00
10261;BME280;5175;42.606;23.388;2023-01-31T07:54:31;93453.56;;;1.25;99.93
10261;BME280;5175;42.606;23.388;2023-01-31T07:56:57;93462.91;;;1.21;99.73
10261;BME280;5175;42.606;23.388;2023-01-31T07:59:24;93460.88;;;1.23;99.49
10261;BME280;5175;42.606;23.388;2023-01-31T08:01:51;93459.47;;;1.32;100.00
10261;BME280;5175;42.606;23.388;2023-01-31T08:04:35;93448.75;;;1.22;99.96
10261;BME280;5175;42.606;23.388;2023-01-31T08:07:03;93456.88;;;1.20;100.00
10261;BME280;5175;42.606;23.388;2023-01-31T08:09:31;93447.94;;;1.21;100.00
10261;BME280;5175;42.606;23.388;2023-01-31T08:11:58;93446.09;;;1.34;100.00
10261;BME280;5175;42.606;23.388;2023-01-31T08:14:24;93452.97;;;1.35;100.00
10261;BME280;5175;42.606;23.388;2023-01-31T08:16:53;93436.53;;;1.27;100.00
10261;BME280;5175;42.606;23.388;2023-01-31T08:19:20;93451.03;;;1.18;100.00
10261;BME280;5175;42.606;23.388;2023-01-31T08:21:47;93448.16;;;1.43;98.76
10261;BME280;5175;42.606;23.388;2023-01-31T08:24:15;93451.50;;;1.39;98.83
10261;BME280;5175;42.606;23.388;2023-01-31T08:26:42;93422.59;;;1.27;97.44
10261;BME280;5175;42.606;23.388;2023-01-31T08:29:09;93444.03;;;1.47;97.99
10261;BME280;5175;42.606;23.388;2023-01-31T08:31:36;93439.81;;;1.46;96.81
10261;BME280;5175;42.606;23.388;2023-01-31T08:34:02;93431.84;;;1.41;97.01
10261;BME280;5175;42.606;23.388;2023-01-31T08:36:29;93447.88;;;1.68;96.30
10261;BME280;5175;42.606;23.388;2023-01-31T08:38:57;93453.53;;;1.88;93.63
10261;BME280;5175;42.606;23.388;2023-01-31T08:41:27;93357.28;;;1.07;93.36
10261;BME280;5175;42.606;23.388;2023-01-31T08:43:55;93378.03;;;1.32;93.96
10261;BME280;5175;42.606;23.388;2023-01-31T08:46:23;93454.94;;;1.79;93.97
10261;BME280;5175;42.606;23.388;2023-01-31T08:48:50;93451.63;;;1.83;93.42
10261;BME280;5175;42.606;23.388;2023-01-31T08:51:16;93453.44;;;1.83;92.80
10261;BME280;5175;42.606;23.388;2023-01-31T08:53:43;93448.19;;;1.83;93.89
10261;BME280;5175;42.606;23.388;2023-01-31T08:56:11;93450.59;;;1.84;93.79
10261;BME280;5175;42.606;23.388;2023-01-31T08:58:41;93448.66;;;2.08;93.28
10261;BME280;5175;42.606;23.388;2023-01-31T09:01:10;93448.34;;;1.76;93.42
10261;BME280;5175;42.606;23.388;2023-01-31T09:03:37;93448.53;;;1.75;94.52
10261;BME280;5175;42.606;23.388;2023-01-31T09:06:06;93439.63;;;1.76;95.17
10261;BME280;5175;42.606;23.388;2023-01-31T09:08:33;93431.75;;;1.76;94.13
10261;BME280;5175;42.606;23.388;2023-01-31T09:11:00;93438.63;;;1.77;92.42
10261;BME280;5175;42.606;23.388;2023-01-31T09:13:28;93436.84;;;1.82;90.91
10261;BME280;5175;42.606;23.388;2023-01-31T09:16:00;93454.41;;;2.05;90.22
10261;BME280;5175;42.606;23.388;2023-01-31T09:18:27;93453.53;;;2.00;89.84
10261;BME280;5175;42.606;23.388;2023-01-31T09:20:54;93447.56;;;2.04;89.35
10261;BME280;5175;42.606;23.388;2023-01-31T09:23:21;93442.19;;;1.99;90.08
10261;BME280;5175;42.606;23.388;2023-01-31T09:25:52;93440.19;;;1.78;89.30
10261;BME280;5175;42.606;23.388;2023-01-31T09:28:19;93435.84;;;1.83;89.28
10261;BME280;5175;42.606;23.388;2023-01-31T09:30:46;93447.94;;;2.24;88.01
10261;BME280;5175;42.606;23.388;2023-01-31T09:33:14;93456.84;;;2.51;84.26
10261;BME280;5175;42.606;23.388;2023-01-31T09:35:41;93450.66;;;2.74;82.42
10261;BME280;5175;42.606;23.388;2023-01-31T09:38:07;93441.38;;;2.55;83.61
10261;BME280;5175;42.606;23.388;2023-01-31T09:40:37;93439.63;;;2.61;82.73
10261;BME280;5175;42.606;23.388;2023-01-31T09:43:05;93433.72;;;2.87;84.42
10261;BME280;5175;42.606;23.388;2023-01-31T09:45:35;93418.38;;;3.17;82.01
10261;BME280;5175;42.606;23.388;2023-01-31T09:48:06;93431.06;;;3.20;80.23
10261;BME280;5175;42.606;23.388;2023-01-31T09:50:36;93417.16;;;3.41;80.02
10261;BME280;5175;42.606;23.388;2023-01-31T09:53:09;93420.88;;;3.45;78.93
10261;BME280;5175;42.606;23.388;2023-01-31T09:55:43;93426.59;;;3.59;76.53
10261;BME280;5175;42.606;23.388;2023-01-31T09:58:18;93425.53;;;3.60;78.17
10261;BME280;5175;42.606;23.388;2023-01-31T10:00:53;93419.94;;;3.95;75.32
10261;BME280;5175;42.606;23.388;2023-01-31T10:03:42;93421.69;;;3.67;72.99
10261;BME280;5175;42.606;23.388;2023-01-31T10:06:18;93402.50;;;3.50;75.87
10261;BME280;5175;42.606;23.388;2023-01-31T10:08:50;93424.91;;;3.69;75.77
10261;BME280;5175;42.606;23.388;2023-01-31T10:11:28;93416.41;;;4.11;75.51
10261;BME280;5175;42.606;23.388;2023-01-31T10:13:59;93418.97;;;4.54;73.44
10261;BME280;5175;42.606;23.388;2023-01-31T10:16:30;93429.03;;;4.09;75.18
10261;BME280;5175;42.606;23.388;2023-01-31T10:19:03;93425.75;;;3.75;76.60
10261;BME280;5175;42.606;23.388;2023-01-31T10:21:35;93427.19;;;3.83;77.44
10261;BME280;5175;42.606;23.388;2023-01-31T10:24:12;93409.66;;;3.98;76.33
10261;BME280;5175;42.606;23.388;2023-01-31T10:26:43;93418.53;;;4.35;74.78
10261;BME280;5175;42.606;23.388;2023-01-31T10:29:17;93410.78;;;4.56;74.05
10261;BME280;5175;42.606;23.388;2023-01-31T10:31:54;93416.59;;;4.58;73.02
10261;BME280;5175;42.606;23.388;2023-01-31T10:34:24;93404.28;;;4.68;73.42
10261;BME280;5175;42.606;23.388;2023-01-31T10:36:57;93407.44;;;4.65;71.47
10261;BME280;5175;42.606;23.388;2023-01-31T10:39:28;93412.09;;;4.53;72.46
10261;BME280;5175;42.606;23.388;2023-01-31T10:42:10;93393.97;;;3.87;72.75
10261;BME280;5175;42.606;23.388;2023-01-31T10:44:43;93399.34;;;3.97;73.23
10261;BME280;5175;42.606;23.388;2023-01-31T10:47:13;93400.22;;;4.02;70.78
10261;BME280;5175;42.606;23.388;2023-01-31T10:49:44;93408.06;;;4.46;71.67
10261;BME280;5175;42.606;23.388;2023-01-31T10:52:25;93397.69;;;4.39;71.28
10261;BME280;5175;42.606;23.388;2023-01-31T10:55:04;93408.59;;;4.74;70.33
10261;BME280;5175;42.606;23.388;2023-01-31T10:57:35;93405.78;;;4.91;70.41
10261;BME280;5175;42.606;23.388;2023-01-31T11:00:03;93427.34;;;4.46;68.55
10261;BME280;5175;42.606;23.388;2023-01-31T11:02:30;93409.69;;;4.83;71.10
10261;BME280;5175;42.606;23.388;2023-01-31T11:04:58;93425.16;;;4.65;71.45
10261;BME280;5175;42.606;23.388;2023-01-31T11:07:29;93421.47;;;4.39;72.34
10261;BME280;5175;42.606;23.388;2023-01-31T11:09:58;93409.47;;;4.05;73.91
10261;BME280;5175;42.606;23.388;2023-01-31T11:12:39;93391.66;;;3.90;75.70
10261;BME280;5175;42.606;23.388;2023-01-31T11:15:14;93407.34;;;4.02;75.95
10261;BME280;5175;42.606;23.388;2023-01-31T11:17:41;93413.06;;;3.72;76.94
10261;BME280;5175;42.606;23.388;2023-01-31T11:20:18;93416.28;;;3.57;78.61
10261;BME280;5175;42.606;23.388;2023-01-31T11:22:48;93408.44;;;3.41;78.56
10261;BME280;5175;42.606;23.388;2023-01-31T11:25:18;93413.09;;;3.17;81.11
10261;BME280;5175;42.606;23.388;2023-01-31T11:27:46;93396.78;;;2.82;82.60
10261;BME280;5175;42.606;23.388;2023-01-31T11:30:20;93405.16;;;2.79;84.71
10261;BME280;5175;42.606;23.388;2023-01-31T11:32:48;93416.72;;;2.78;85.75
10261;BME280;5175;42.606;23.388;2023-01-31T11:35:22;93404.53;;;2.72;86.52
10261;BME280;5175;42.606;23.388;2023-01-31T11:37:53;93410.09;;;2.75;87.45
10261;BME280;5175;42.606;23.388;2023-01-31T11:40:25;93406.91;;;2.90;88.24
10261;BME280;5175;42.606;23.388;2023-01-31T11:42:55;93403.84;;;2.98;88.25
10261;BME280;5175;42.606;23.388;2023-01-31T11:45:24;93393.16;;;2.88;88.44
10261;BME280;5175;42.606;23.388;2023-01-31T11:47:54;93389.72;;;3.04;89.07
10261;BME280;5175;42.606;23.388;2023-01-31T11:50:23;93393.75;;;2.90;89.89
10261;BME280;5175;42.606;23.388;2023-01-31T11:52:58;93386.00;;;3.00;91.91
10261;BME280;5175;42.606;23.388;2023-01-31T11:55:25;93217.06;;;2.03;90.99
10261;BME280;5175;42.606;23.388;2023-01-31T11:57:55;93379.09;;;2.99;92.65
10261;BME280;5175;42.606;23.388;2023-01-31T12:00:25;93389.63;;;3.15;92.30
10261;BME280;5175;42.606;23.388;2023-01-31T12:02:58;93381.59;;;2.89;93.08
10261;BME280;5175;42.606;23.388;2023-01-31T12:05:34;93375.31;;;2.90;94.88
10261;BME280;5175;42.606;23.388;2023-01-31T12:08:03;93391.91;;;2.74;98.14
10261;BME280;5175;42.606;23.388;2023-01-31T12:10:39;93382.72;;;2.60;99.40
10261;BME280;5175;42.606;23.388;2023-01-31T12:13:14;93386.53;;;2.52;100.00
10261;BME280;5175;42.606;23.388;2023-01-31T12:15:53;93382.78;;;2.31;100.00
10261;BME280;5175;42.606;23.388;2023-01-31T12:18:32;93378.94;;;2.22;100.00
10261;BME280;5175;42.606;23.388;2023-01-31T12:21:06;93385.00;;;2.23;100.00
10261;BME280;5175;42.606;23.388;2023-01-31T12:23:46;93386.03;;;2.05;100.00
10261;BME280;5175;42.606;23.388;2023-01-31T12:26:23;93378.88;;;2.34;100.00
10261;BME280;5175;42.606;23.388;2023-01-31T12:29:13;93382.09;;;2.36;100.00
10261;BME280;5175;42.606;23.388;2023-01-31T12:31:57;93379.38;;;2.31;100.00
10261;BME280;5175;42.606;23.388;2023-01-31T12:34:41;93392.09;;;2.22;100.00
10261;BME280;5175;42.606;23.388;2023-01-31T12:37:25;93400.50;;;2.36;100.00
10261;BME280;5175;42.606;23.388;2023-01-31T12:40:06;93399.06;;;2.28;99.28
10261;BME280;5175;42.606;23.388;2023-01-31T12:42:48;93392.28;;;2.32;97.94
10261;BME280;5175;42.606;23.388;2023-01-31T12:45:35;93395.63;;;2.28;97.50
10261;BME280;5175;42.606;23.388;2023-01-31T12:48:42;93389.81;;;2.26;96.13
10261;BME280;5175;42.606;23.388;2023-01-31T12:51:22;93396.03;;;1.92;97.85
10261;BME280;5175;42.606;23.388;2023-01-31T12:54:00;93389.25;;;1.96;99.18
10261;BME280;5175;42.606;23.388;2023-01-31T12:56:41;93389.25;;;1.96;99.91
10261;BME280;5175;42.606;23.388;2023-01-31T12:59:22;93391.50;;;2.04;100.00
10261;BME280;5175;42.606;23.388;2023-01-31T13:01:57;93386.03;;;2.05;99.21
10261;BME280;5175;42.606;23.388;2023-01-31T13:04:31;93402.44;;;2.12;98.34
10261;BME280;5175;42.606;23.388;2023-01-31T13:07:04;93394.13;;;2.04;100.00
10261;BME280;5175;42.606;23.388;2023-01-31T13:09:33;93409.19;;;2.08;100.00
10261;BME280;5175;42.606;23.388;2023-01-31T13:12:05;93378.97;;;1.66;100.00
10261;BME280;5175;42.606;23.388;2023-01-31T13:14:37;93399.38;;;1.75;100.00
10261;BME280;5175;42.606;23.388;2023-01-31T13:17:10;93399.13;;;1.88;100.00
10261;BME280;5175;42.606;23.388;2023-01-31T13:19:41;93397.47;;;1.71;100.00
10261;BME280;5175;42.606;23.388;2023-01-31T13:22:12;93398.03;;;1.73;100.00
10261;BME280;5175;42.606;23.388;2023-01-31T13:24:41;93373.06;;;1.59;100.00
10261;BME280;5175;42.606;23.388;2023-01-31T13:27:16;93392.25;;;1.87;100.00